createdAt,value
2023-05-15T00:01:00.292Z,21.10
2023-05-15T00:07:03.703Z,25.15
2023-05-15T00:13:08.461Z,23.77
2023-05-15T00:19:12.127Z,29.98
2023-05-15T00:25:15.595Z,28.83
2023-05-15T00:31:20.593Z,26.48
2023-05-15T00:37:25.132Z,27.45
2023-05-15T00:43:28.693Z,23.17
2023-05-15T00:49:35.593Z,23.60
2023-05-15T00:55:39.331Z,21.45
2023-05-15T01:01:45.287Z,13.07
2023-05-15T01:07:54.150Z,15.10
2023-05-15T01:13:57.676Z,24.67
2023-05-15T01:20:03.111Z,26.30
2023-05-15T01:26:31.619Z,25.35
2023-05-15T01:32:52.979Z,26.80
2023-05-15T01:38:59.660Z,26.08
2023-05-15T01:45:05.766Z,22.00
2023-05-15T01:51:12.384Z,30.00
2023-05-15T01:57:16.421Z,29.30
2023-05-15T02:03:20.496Z,32.55
2023-05-15T02:09:25.778Z,31.48
2023-05-15T02:15:29.383Z,32.60
2023-05-15T02:21:32.778Z,32.50
2023-05-15T02:27:40.676Z,32.53
2023-05-15T02:33:49.628Z,28.23
2023-05-15T02:39:54.453Z,29.00
2023-05-15T02:45:59.630Z,27.58
2023-05-15T02:52:03.060Z,25.73
2023-05-15T02:58:07.035Z,27.30
2023-05-15T03:04:11.987Z,27.33
2023-05-15T03:10:15.443Z,26.98
2023-05-15T03:16:18.915Z,26.10
2023-05-15T03:22:23.703Z,27.50
2023-05-15T03:28:27.104Z,26.88
2023-05-15T03:34:30.514Z,25.15
2023-05-15T03:40:35.515Z,26.65
2023-05-15T03:46:39.038Z,26.73
2023-05-15T03:52:42.542Z,26.73
2023-05-15T03:58:47.344Z,19.33
2023-05-15T04:04:51.701Z,25.02
2023-05-15T04:10:55.133Z,25.33
2023-05-15T04:16:59.962Z,23.92
2023-05-15T04:23:05.796Z,23.38
2023-05-15T04:29:09.479Z,23.33
2023-05-15T04:35:15.505Z,21.65
2023-05-15T04:41:18.977Z,22.60
2023-05-15T04:47:22.455Z,22.10
2023-05-15T04:53:27.218Z,22.38
2023-05-15T04:59:30.942Z,21.95
2023-05-15T05:05:34.344Z,22.33
2023-05-15T05:11:43.571Z,22.23
2023-05-15T05:17:48.256Z,23.67
2023-05-15T05:23:51.652Z,22.58
2023-05-15T05:29:56.691Z,23.15
2023-05-15T05:36:00.227Z,21.35
2023-05-15T05:42:03.624Z,22.08
2023-05-15T05:48:08.493Z,21.95
2023-05-15T05:54:12.057Z,21.70
2023-05-15T06:00:16.213Z,21.75
2023-05-15T06:06:21.014Z,21.63
2023-05-15T06:12:24.408Z,24.02
2023-05-15T06:18:28.118Z,23.33
2023-05-15T06:24:33.027Z,22.40
2023-05-15T06:30:36.433Z,23.23
2023-05-15T06:36:39.902Z,22.30
2023-05-15T06:42:44.656Z,22.40
2023-05-15T06:48:48.715Z,23.42
2023-05-15T06:54:53.105Z,23.58
2023-05-15T07:00:59.418Z,22.35
2023-05-15T07:07:02.938Z,21.25
2023-05-15T07:13:06.413Z,20.92
2023-05-15T07:19:11.916Z,22.75
2023-05-15T07:25:16.955Z,23.65
2023-05-15T07:31:25.127Z,25.13
2023-05-15T07:37:30.171Z,24.60
2023-05-15T07:43:33.673Z,24.38
2023-05-15T07:49:37.124Z,23.52
2023-05-15T07:55:42.545Z,24.88
2023-05-15T08:01:45.961Z,24.80
2023-05-15T08:07:49.355Z,23.95
2023-05-15T08:13:54.216Z,24.10
2023-05-15T08:19:58.199Z,24.13
2023-05-15T08:26:01.765Z,25.15
2023-05-15T08:32:07.500Z,26.38
2023-05-15T08:38:11.012Z,27.58
2023-05-15T08:44:14.795Z,25.42
2023-05-15T08:50:19.804Z,25.60
2023-05-15T08:56:23.458Z,25.67
2023-05-15T09:02:27.242Z,25.13
2023-05-15T09:08:34.396Z,23.05
2023-05-15T09:14:37.860Z,20.85
2023-05-15T09:20:41.232Z,18.17
2023-05-15T09:26:46.160Z,18.65
2023-05-15T09:32:51.621Z,17.63
2023-05-15T09:39:00.338Z,17.23
2023-05-15T09:45:05.442Z,15.68
2023-05-15T09:51:16.221Z,13.45
2023-05-15T09:57:23.518Z,13.35
2023-05-15T10:03:28.368Z,11.68
2023-05-15T10:09:32.592Z,10.45
2023-05-15T10:15:36.223Z,8.13
2023-05-15T10:21:42.259Z,7.70
2023-05-15T10:27:45.763Z,7.80
2023-05-15T10:33:49.992Z,7.18
2023-05-15T10:39:56.015Z,3.70
2023-05-15T10:46:00.051Z,2.67
2023-05-15T10:52:04.025Z,2.47
2023-05-15T10:58:11.987Z,2.08
2023-05-15T11:04:16.323Z,2.13
2023-05-15T11:10:39.631Z,2.17
2023-05-15T11:16:58.350Z,2.10
2023-05-15T11:23:03.138Z,1.90
2023-05-15T11:29:19.361Z,2.50
2023-05-15T11:35:24.706Z,1.88
2023-05-15T11:41:33.174Z,1.95
2023-05-15T11:47:37.078Z,1.80
2023-05-15T11:53:41.060Z,2.10
2023-05-15T11:59:46.154Z,2.20
2023-05-15T12:05:57.571Z,2.50
2023-05-15T12:12:03.772Z,2.00
2023-05-15T12:18:09.203Z,2.03
2023-05-15T12:24:13.900Z,2.08
2023-05-15T12:30:17.416Z,2.08
2023-05-15T12:36:23.581Z,2.15
2023-05-15T12:42:27.559Z,2.28
2023-05-15T12:48:32.247Z,2.38
2023-05-15T12:54:41.514Z,2.80
2023-05-15T13:00:46.390Z,2.40
2023-05-15T13:06:50.171Z,2.78
2023-05-15T13:12:55.773Z,2.72
2023-05-15T13:18:59.463Z,3.00
2023-05-15T13:25:02.949Z,2.70
2023-05-15T13:31:07.724Z,2.70
2023-05-15T13:37:11.310Z,2.83
2023-05-15T13:43:14.857Z,2.47
2023-05-15T13:49:19.811Z,2.60
2023-05-15T13:55:24.009Z,2.42
2023-05-15T14:01:27.601Z,2.80
2023-05-15T14:07:33.028Z,2.45
2023-05-15T14:13:36.808Z,2.40
2023-05-15T14:19:40.462Z,2.55
2023-05-15T14:25:45.229Z,2.60
2023-05-15T14:31:48.648Z,2.75
2023-05-15T14:37:52.778Z,2.90
2023-05-15T14:43:57.546Z,2.50
2023-05-15T14:50:01.001Z,2.17
2023-05-15T14:56:04.569Z,2.65
2023-05-15T15:02:09.465Z,2.53
2023-05-15T15:08:13.299Z,2.20
2023-05-15T15:14:16.710Z,2.65
2023-05-15T15:20:22.197Z,2.45
2023-05-15T15:26:25.959Z,2.33
2023-05-15T15:32:29.351Z,2.20
2023-05-15T15:38:34.396Z,1.95
2023-05-15T15:44:37.836Z,2.67
2023-05-15T15:50:41.291Z,2.10
2023-05-15T15:56:48.089Z,2.13
2023-05-15T16:02:51.554Z,2.38
2023-05-15T16:08:55.027Z,2.00
2023-05-15T16:15:06.863Z,1.83
2023-05-15T16:21:17.211Z,1.85
2023-05-15T16:27:21.383Z,2.17
2023-05-15T16:33:26.398Z,3.05
2023-05-15T16:39:30.735Z,2.47
2023-05-15T16:45:34.158Z,2.25
2023-05-15T16:51:38.929Z,2.60
2023-05-15T16:57:42.802Z,2.55
2023-05-15T17:03:46.482Z,2.33
2023-05-15T17:09:51.415Z,1.83
2023-05-15T17:15:54.924Z,2.65
2023-05-15T17:21:58.406Z,3.50
2023-05-15T17:28:03.241Z,2.83
2023-05-15T17:34:07.306Z,2.67
2023-05-15T17:40:11.175Z,2.17
2023-05-15T17:46:16.151Z,2.83
2023-05-15T17:52:19.869Z,2.83
2023-05-15T17:58:23.390Z,2.67
2023-05-15T18:04:28.319Z,2.58
2023-05-15T18:10:31.803Z,2.40
2023-05-15T18:16:35.315Z,2.92
2023-05-15T18:22:41.066Z,2.20
2023-05-15T18:28:44.789Z,2.30
2023-05-15T18:34:48.292Z,2.75
2023-05-15T18:40:53.438Z,2.05
2023-05-15T18:46:57.213Z,2.63
2023-05-15T18:53:00.687Z,2.28
2023-05-15T18:59:05.847Z,2.00
2023-05-15T19:05:09.630Z,2.58
2023-05-15T19:11:13.031Z,2.17
2023-05-15T19:17:20.534Z,1.90
2023-05-15T19:23:24.606Z,1.63
2023-05-15T19:29:28.180Z,1.90
2023-05-15T19:35:35.878Z,2.10
2023-05-15T19:41:40.751Z,1.52
2023-05-15T19:47:44.225Z,1.85
2023-05-15T19:53:49.324Z,2.60
2023-05-15T19:59:52.836Z,1.90
2023-05-15T20:05:56.240Z,1.92
2023-05-15T20:12:02.794Z,2.10
2023-05-15T20:18:06.712Z,2.20
2023-05-15T20:24:10.448Z,2.35
2023-05-15T20:30:15.401Z,2.20
2023-05-15T20:36:19.135Z,1.95
2023-05-15T20:42:22.640Z,1.92
2023-05-15T20:48:27.488Z,1.65
2023-05-15T20:54:31.620Z,1.77
2023-05-15T21:00:35.398Z,1.92
2023-05-15T21:06:40.228Z,2.03
2023-05-15T21:12:43.678Z,1.67
2023-05-15T21:18:48.950Z,1.83
2023-05-15T21:24:53.850Z,2.20
2023-05-15T21:30:57.311Z,2.00
2023-05-15T21:37:01.036Z,1.90
2023-05-15T21:43:05.956Z,2.10
2023-05-15T21:49:09.355Z,1.70
2023-05-15T21:55:13.051Z,1.75
2023-05-15T22:01:17.989Z,1.85
2023-05-15T22:07:21.794Z,1.63
2023-05-15T22:13:25.385Z,1.95
2023-05-15T22:19:33.425Z,1.95
2023-05-15T22:25:37.091Z,1.58
2023-05-15T22:31:41.385Z,1.65
2023-05-15T22:37:46.736Z,1.30
2023-05-15T22:43:50.133Z,2.22
2023-05-15T22:49:53.742Z,1.90
2023-05-15T22:55:58.811Z,2.30
2023-05-15T23:02:02.790Z,1.70
2023-05-15T23:08:06.478Z,1.95
2023-05-15T23:14:12.120Z,1.95
2023-05-15T23:20:16.121Z,1.80
2023-05-15T23:26:19.572Z,1.80
2023-05-15T23:32:24.391Z,1.42
2023-05-15T23:38:28.358Z,1.83
2023-05-15T23:44:32.108Z,1.80
2023-05-15T23:50:36.914Z,1.70
2023-05-15T23:56:40.554Z,1.33
